sensor_id;sensor_type;location;lat;lon;timestamp;P1;durP1;ratioP1;P2;durP2;ratioP2
22097;SDS011;11215;51.938;8.464;2022-12-18T00:01:03;18.23;;;10.83;;
22097;SDS011;11215;51.938;8.464;2022-12-18T00:03:34;13.83;;;9.50;;
22097;SDS011;11215;51.938;8.464;2022-12-18T00:06:01;16.03;;;9.37;;
22097;SDS011;11215;51.938;8.464;2022-12-18T00:08:27;15.27;;;8.43;;
22097;SDS011;11215;51.938;8.464;2022-12-18T00:10:53;16.50;;;8.93;;
22097;SDS011;11215;51.938;8.464;2022-12-18T00:13:19;13.73;;;8.47;;
22097;SDS011;11215;51.938;8.464;2022-12-18T00:15:45;11.50;;;7.53;;
22097;SDS011;11215;51.938;8.464;2022-12-18T00:18:11;10.87;;;6.97;;
22097;SDS011;11215;51.938;8.464;2022-12-18T00:20:37;10.63;;;6.63;;
22097;SDS011;11215;51.938;8.464;2022-12-18T00:23:04;12.87;;;7.47;;
22097;SDS011;11215;51.938;8.464;2022-12-18T00:25:34;11.00;;;7.07;;
22097;SDS011;11215;51.938;8.464;2022-12-18T00:28:01;12.00;;;6.63;;
22097;SDS011;11215;51.938;8.464;2022-12-18T00:30:27;10.13;;;7.03;;
22097;SDS011;11215;51.938;8.464;2022-12-18T00:32:53;11.30;;;7.43;;
22097;SDS011;11215;51.938;8.464;2022-12-18T00:35:19;10.30;;;5.47;;
22097;SDS011;11215;51.938;8.464;2022-12-18T00:37:45;13.83;;;7.80;;
22097;SDS011;11215;51.938;8.464;2022-12-18T00:40:10;18.33;;;8.70;;
22097;SDS011;11215;51.938;8.464;2022-12-18T00:42:36;13.17;;;8.30;;
22097;SDS011;11215;51.938;8.464;2022-12-18T00:45:27;13.00;;;6.90;;
22097;SDS011;11215;51.938;8.464;2022-12-18T00:47:55;14.43;;;7.13;;
22097;SDS011;11215;51.938;8.464;2022-12-18T00:50:22;13.93;;;8.37;;
22097;SDS011;11215;51.938;8.464;2022-12-18T00:52:49;11.80;;;7.73;;
22097;SDS011;11215;51.938;8.464;2022-12-18T00:55:14;15.73;;;8.13;;
22097;SDS011;11215;51.938;8.464;2022-12-18T00:57:41;13.50;;;7.33;;
22097;SDS011;11215;51.938;8.464;2022-12-18T01:00:08;9.70;;;6.37;;
22097;SDS011;11215;51.938;8.464;2022-12-18T01:02:37;12.60;;;6.70;;
22097;SDS011;11215;51.938;8.464;2022-12-18T01:05:02;10.60;;;5.97;;
22097;SDS011;11215;51.938;8.464;2022-12-18T01:07:29;10.03;;;5.67;;
22097;SDS011;11215;51.938;8.464;2022-12-18T01:09:54;11.00;;;6.30;;
22097;SDS011;11215;51.938;8.464;2022-12-18T01:12:20;10.13;;;5.37;;
22097;SDS011;11215;51.938;8.464;2022-12-18T01:14:46;9.33;;;4.87;;
22097;SDS011;11215;51.938;8.464;2022-12-18T01:17:11;6.97;;;4.77;;
22097;SDS011;11215;51.938;8.464;2022-12-18T01:19:37;9.10;;;4.47;;
22097;SDS011;11215;51.938;8.464;2022-12-18T01:22:02;9.33;;;5.03;;
22097;SDS011;11215;51.938;8.464;2022-12-18T01:24:28;6.87;;;4.20;;
22097;SDS011;11215;51.938;8.464;2022-12-18T01:26:53;8.77;;;4.13;;
22097;SDS011;11215;51.938;8.464;2022-12-18T01:29:19;7.17;;;4.53;;
22097;SDS011;11215;51.938;8.464;2022-12-18T01:31:45;5.70;;;3.90;;
22097;SDS011;11215;51.938;8.464;2022-12-18T01:34:10;6.53;;;4.20;;
22097;SDS011;11215;51.938;8.464;2022-12-18T01:36:36;7.37;;;4.77;;
22097;SDS011;11215;51.938;8.464;2022-12-18T01:39:08;6.87;;;3.73;;
22097;SDS011;11215;51.938;8.464;2022-12-18T01:41:36;3.63;;;3.10;;
22097;SDS011;11215;51.938;8.464;2022-12-18T01:47:13;3.50;;;2.90;;
22097;SDS011;11215;51.938;8.464;2022-12-18T01:49:44;3.80;;;2.90;;
22097;SDS011;11215;51.938;8.464;2022-12-18T01:52:09;5.43;;;3.10;;
22097;SDS011;11215;51.938;8.464;2022-12-18T01:54:35;6.63;;;3.67;;
22097;SDS011;11215;51.938;8.464;2022-12-18T01:57:00;4.57;;;3.23;;
22097;SDS011;11215;51.938;8.464;2022-12-18T01:59:26;4.63;;;2.93;;
22097;SDS011;11215;51.938;8.464;2022-12-18T02:01:54;5.23;;;2.97;;
22097;SDS011;11215;51.938;8.464;2022-12-18T02:04:21;6.30;;;3.53;;
22097;SDS011;11215;51.938;8.464;2022-12-18T02:06:51;6.53;;;3.03;;
22097;SDS011;11215;51.938;8.464;2022-12-18T02:09:40;4.87;;;3.13;;
22097;SDS011;11215;51.938;8.464;2022-12-18T02:12:38;4.30;;;2.97;;
22097;SDS011;11215;51.938;8.464;2022-12-18T02:15:15;4.70;;;3.20;;
22097;SDS011;11215;51.938;8.464;2022-12-18T02:17:54;5.63;;;3.20;;
22097;SDS011;11215;51.938;8.464;2022-12-18T02:20:36;4.77;;;2.93;;
22097;SDS011;11215;51.938;8.464;2022-12-18T02:29:26;6.07;;;3.30;;
22097;SDS011;11215;51.938;8.464;2022-12-18T02:32:00;4.83;;;3.60;;
22097;SDS011;11215;51.938;8.464;2022-12-18T02:34:31;6.43;;;3.70;;
22097;SDS011;11215;51.938;8.464;2022-12-18T02:37:00;5.03;;;3.67;;
22097;SDS011;11215;51.938;8.464;2022-12-18T02:39:30;6.33;;;3.33;;
22097;SDS011;11215;51.938;8.464;2022-12-18T02:41:59;5.63;;;3.37;;
22097;SDS011;11215;51.938;8.464;2022-12-18T02:44:27;4.87;;;3.37;;
22097;SDS011;11215;51.938;8.464;2022-12-18T02:46:53;5.53;;;3.07;;
22097;SDS011;11215;51.938;8.464;2022-12-18T02:52:07;4.83;;;2.73;;
22097;SDS011;11215;51.938;8.464;2022-12-18T02:57:43;5.67;;;2.83;;
22097;SDS011;11215;51.938;8.464;2022-12-18T03:00:28;4.37;;;3.10;;
22097;SDS011;11215;51.938;8.464;2022-12-18T03:03:16;6.43;;;4.07;;
22097;SDS011;11215;51.938;8.464;2022-12-18T03:05:50;5.70;;;3.33;;
22097;SDS011;11215;51.938;8.464;2022-12-18T03:08:21;4.70;;;2.87;;
22097;SDS011;11215;51.938;8.464;2022-12-18T03:10:57;6.00;;;3.10;;
22097;SDS011;11215;51.938;8.464;2022-12-18T03:13:31;5.77;;;2.83;;
22097;SDS011;11215;51.938;8.464;2022-12-18T03:16:05;5.07;;;2.50;;
22097;SDS011;11215;51.938;8.464;2022-12-18T03:18:38;5.67;;;2.93;;
22097;SDS011;11215;51.938;8.464;2022-12-18T03:21:10;3.70;;;3.00;;
22097;SDS011;11215;51.938;8.464;2022-12-18T03:23:40;5.27;;;2.43;;
22097;SDS011;11215;51.938;8.464;2022-12-18T03:26:10;3.83;;;2.37;;
22097;SDS011;11215;51.938;8.464;2022-12-18T03:28:40;4.77;;;2.50;;
22097;SDS011;11215;51.938;8.464;2022-12-18T03:31:11;3.53;;;2.53;;
22097;SDS011;11215;51.938;8.464;2022-12-18T03:33:40;4.47;;;2.27;;
22097;SDS011;11215;51.938;8.464;2022-12-18T03:36:07;2.17;;;1.83;;
22097;SDS011;11215;51.938;8.464;2022-12-18T03:38:33;5.83;;;2.70;;
22097;SDS011;11215;51.938;8.464;2022-12-18T03:46:39;4.17;;;2.10;;
22097;SDS011;11215;51.938;8.464;2022-12-18T03:49:33;3.37;;;2.00;;
22097;SDS011;11215;51.938;8.464;2022-12-18T03:54:51;3.13;;;2.03;;
22097;SDS011;11215;51.938;8.464;2022-12-18T03:57:20;4.27;;;2.47;;
22097;SDS011;11215;51.938;8.464;2022-12-18T03:59:50;3.87;;;2.20;;
22097;SDS011;11215;51.938;8.464;2022-12-18T04:02:20;2.37;;;2.00;;
22097;SDS011;11215;51.938;8.464;2022-12-18T04:04:47;3.40;;;2.13;;
22097;SDS011;11215;51.938;8.464;2022-12-18T04:07:16;3.63;;;1.93;;
22097;SDS011;11215;51.938;8.464;2022-12-18T04:09:43;3.00;;;2.07;;
22097;SDS011;11215;51.938;8.464;2022-12-18T04:12:11;3.50;;;2.10;;
22097;SDS011;11215;51.938;8.464;2022-12-18T04:14:36;2.73;;;1.90;;
22097;SDS011;11215;51.938;8.464;2022-12-18T04:17:02;3.67;;;2.10;;
22097;SDS011;11215;51.938;8.464;2022-12-18T04:19:28;2.27;;;1.73;;
22097;SDS011;11215;51.938;8.464;2022-12-18T04:21:54;2.47;;;1.70;;
22097;SDS011;11215;51.938;8.464;2022-12-18T04:24:19;3.17;;;2.00;;
22097;SDS011;11215;51.938;8.464;2022-12-18T04:26:45;2.63;;;1.60;;
22097;SDS011;11215;51.938;8.464;2022-12-18T04:29:10;2.23;;;1.90;;
22097;SDS011;11215;51.938;8.464;2022-12-18T04:31:36;2.90;;;1.63;;
22097;SDS011;11215;51.938;8.464;2022-12-18T04:34:02;3.80;;;2.27;;
22097;SDS011;11215;51.938;8.464;2022-12-18T04:36:28;1.90;;;1.67;;
22097;SDS011;11215;51.938;8.464;2022-12-18T04:38:54;2.53;;;2.07;;
22097;SDS011;11215;51.938;8.464;2022-12-18T04:41:20;3.00;;;2.17;;
22097;SDS011;11215;51.938;8.464;2022-12-18T04:43:46;4.23;;;2.43;;
22097;SDS011;11215;51.938;8.464;2022-12-18T04:46:11;2.77;;;2.00;;
22097;SDS011;11215;51.938;8.464;2022-12-18T04:48:37;3.60;;;2.30;;
22097;SDS011;11215;51.938;8.464;2022-12-18T04:51:04;3.33;;;1.97;;
22097;SDS011;11215;51.938;8.464;2022-12-18T04:53:30;2.60;;;1.87;;
22097;SDS011;11215;51.938;8.464;2022-12-18T04:56:30;2.07;;;1.80;;
22097;SDS011;11215;51.938;8.464;2022-12-18T04:58:48;3.20;;;2.07;;
22097;SDS011;11215;51.938;8.464;2022-12-18T05:01:14;3.60;;;2.23;;
22097;SDS011;11215;51.938;8.464;2022-12-18T05:03:41;3.33;;;1.90;;
22097;SDS011;11215;51.938;8.464;2022-12-18T05:06:07;2.77;;;2.03;;
22097;SDS011;11215;51.938;8.464;2022-12-18T05:08:33;2.93;;;1.97;;
22097;SDS011;11215;51.938;8.464;2022-12-18T05:11:03;3.03;;;1.77;;
22097;SDS011;11215;51.938;8.464;2022-12-18T05:13:31;3.43;;;2.20;;
22097;SDS011;11215;51.938;8.464;2022-12-18T05:15:57;4.07;;;2.33;;
22097;SDS011;11215;51.938;8.464;2022-12-18T05:18:23;3.00;;;1.87;;
22097;SDS011;11215;51.938;8.464;2022-12-18T05:20:50;2.73;;;1.90;;
22097;SDS011;11215;51.938;8.464;2022-12-18T05:23:16;3.43;;;1.97;;
22097;SDS011;11215;51.938;8.464;2022-12-18T05:25:42;2.20;;;1.80;;
22097;SDS011;11215;51.938;8.464;2022-12-18T05:28:15;2.73;;;1.73;;
22097;SDS011;11215;51.938;8.464;2022-12-18T05:30:41;3.10;;;1.90;;
22097;SDS011;11215;51.938;8.464;2022-12-18T05:33:06;2.23;;;2.03;;
22097;SDS011;11215;51.938;8.464;2022-12-18T05:35:32;3.27;;;2.20;;
22097;SDS011;11215;51.938;8.464;2022-12-18T05:37:57;3.33;;;2.03;;
22097;SDS011;11215;51.938;8.464;2022-12-18T05:40:23;2.80;;;1.90;;
22097;SDS011;11215;51.938;8.464;2022-12-18T05:42:48;3.73;;;2.03;;
22097;SDS011;11215;51.938;8.464;2022-12-18T05:45:14;2.80;;;1.73;;
22097;SDS011;11215;51.938;8.464;2022-12-18T05:47:40;4.73;;;2.33;;
22097;SDS011;11215;51.938;8.464;2022-12-18T05:50:05;4.13;;;2.30;;
22097;SDS011;11215;51.938;8.464;2022-12-18T05:52:32;2.47;;;1.77;;
22097;SDS011;11215;51.938;8.464;2022-12-18T05:54:57;3.53;;;2.40;;
22097;SDS011;11215;51.938;8.464;2022-12-18T05:57:24;4.40;;;2.47;;
22097;SDS011;11215;51.938;8.464;2022-12-18T05:59:49;2.70;;;2.03;;
22097;SDS011;11215;51.938;8.464;2022-12-18T06:02:15;5.20;;;2.30;;
22097;SDS011;11215;51.938;8.464;2022-12-18T06:04:41;2.57;;;1.93;;
22097;SDS011;11215;51.938;8.464;2022-12-18T06:07:07;4.67;;;2.37;;
22097;SDS011;11215;51.938;8.464;2022-12-18T06:09:32;4.37;;;2.77;;
22097;SDS011;11215;51.938;8.464;2022-12-18T06:11:58;3.00;;;2.10;;
22097;SDS011;11215;51.938;8.464;2022-12-18T06:14:23;5.40;;;2.60;;
22097;SDS011;11215;51.938;8.464;2022-12-18T06:16:50;3.33;;;2.50;;
22097;SDS011;11215;51.938;8.464;2022-12-18T06:19:16;3.77;;;2.60;;
22097;SDS011;11215;51.938;8.464;2022-12-18T06:21:42;3.40;;;2.03;;
22097;SDS011;11215;51.938;8.464;2022-12-18T06:24:08;3.03;;;2.20;;
22097;SDS011;11215;51.938;8.464;2022-12-18T06:26:33;5.47;;;3.00;;
22097;SDS011;11215;51.938;8.464;2022-12-18T06:29:01;3.67;;;2.50;;
22097;SDS011;11215;51.938;8.464;2022-12-18T06:31:27;5.43;;;2.63;;
22097;SDS011;11215;51.938;8.464;2022-12-18T06:33:52;4.40;;;2.53;;
22097;SDS011;11215;51.938;8.464;2022-12-18T06:36:18;4.30;;;2.80;;
22097;SDS011;11215;51.938;8.464;2022-12-18T06:38:44;4.47;;;2.67;;
22097;SDS011;11215;51.938;8.464;2022-12-18T06:41:14;5.70;;;2.97;;
22097;SDS011;11215;51.938;8.464;2022-12-18T06:43:41;4.50;;;3.00;;
22097;SDS011;11215;51.938;8.464;2022-12-18T06:46:07;4.50;;;3.00;;
22097;SDS011;11215;51.938;8.464;2022-12-18T06:48:34;6.37;;;3.23;;
22097;SDS011;11215;51.938;8.464;2022-12-18T06:50:59;6.50;;;3.00;;
22097;SDS011;11215;51.938;8.464;2022-12-18T06:53:25;6.40;;;3.63;;
22097;SDS011;11215;51.938;8.464;2022-12-18T06:55:51;5.87;;;3.27;;
22097;SDS011;11215;51.938;8.464;2022-12-18T06:58:17;5.97;;;3.13;;
22097;SDS011;11215;51.938;8.464;2022-12-18T07:00:43;5.07;;;2.73;;
22097;SDS011;11215;51.938;8.464;2022-12-18T07:03:08;6.77;;;3.20;;
22097;SDS011;11215;51.938;8.464;2022-12-18T07:05:34;4.27;;;3.00;;
22097;SDS011;11215;51.938;8.464;2022-12-18T07:08:04;5.80;;;3.87;;
22097;SDS011;11215;51.938;8.464;2022-12-18T07:10:29;4.43;;;3.33;;
22097;SDS011;11215;51.938;8.464;2022-12-18T07:12:55;4.63;;;3.00;;
22097;SDS011;11215;51.938;8.464;2022-12-18T07:15:21;6.73;;;3.73;;
22097;SDS011;11215;51.938;8.464;2022-12-18T07:17:46;6.60;;;4.17;;
22097;SDS011;11215;51.938;8.464;2022-12-18T07:20:12;7.47;;;4.17;;
22097;SDS011;11215;51.938;8.464;2022-12-18T07:22:37;7.33;;;4.40;;
22097;SDS011;11215;51.938;8.464;2022-12-18T07:25:03;8.03;;;4.67;;
22097;SDS011;11215;51.938;8.464;2022-12-18T07:27:29;6.27;;;4.57;;
22097;SDS011;11215;51.938;8.464;2022-12-18T07:29:55;8.77;;;4.53;;
22097;SDS011;11215;51.938;8.464;2022-12-18T07:32:20;8.27;;;4.87;;
22097;SDS011;11215;51.938;8.464;2022-12-18T07:34:46;7.53;;;4.10;;
22097;SDS011;11215;51.938;8.464;2022-12-18T07:37:11;7.87;;;5.70;;
22097;SDS011;11215;51.938;8.464;2022-12-18T07:39:37;10.57;;;7.43;;
22097;SDS011;11215;51.938;8.464;2022-12-18T07:42:02;11.30;;;7.13;;
22097;SDS011;11215;51.938;8.464;2022-12-18T07:44:47;9.00;;;6.20;;
22097;SDS011;11215;51.938;8.464;2022-12-18T07:47:12;8.67;;;5.30;;
22097;SDS011;11215;51.938;8.464;2022-12-18T07:49:38;6.90;;;4.73;;
22097;SDS011;11215;51.938;8.464;2022-12-18T07:52:03;10.47;;;5.77;;
22097;SDS011;11215;51.938;8.464;2022-12-18T07:54:29;7.87;;;4.63;;
22097;SDS011;11215;51.938;8.464;2022-12-18T07:56:54;6.23;;;4.43;;
22097;SDS011;11215;51.938;8.464;2022-12-18T07:59:20;5.57;;;3.57;;
22097;SDS011;11215;51.938;8.464;2022-12-18T08:01:46;6.03;;;3.63;;
22097;SDS011;11215;51.938;8.464;2022-12-18T08:04:11;4.03;;;3.07;;
22097;SDS011;11215;51.938;8.464;2022-12-18T08:06:37;5.47;;;2.97;;
22097;SDS011;11215;51.938;8.464;2022-12-18T08:09:02;6.80;;;3.07;;
22097;SDS011;11215;51.938;8.464;2022-12-18T08:11:28;4.40;;;3.07;;
22097;SDS011;11215;51.938;8.464;2022-12-18T08:13:54;5.17;;;3.17;;
22097;SDS011;11215;51.938;8.464;2022-12-18T08:16:21;4.17;;;2.90;;
22097;SDS011;11215;51.938;8.464;2022-12-18T08:18:47;4.40;;;3.23;;
22097;SDS011;11215;51.938;8.464;2022-12-18T08:21:22;4.67;;;3.00;;
22097;SDS011;11215;51.938;8.464;2022-12-18T08:23:51;5.33;;;2.60;;
22097;SDS011;11215;51.938;8.464;2022-12-18T08:26:19;4.90;;;3.17;;
22097;SDS011;11215;51.938;8.464;2022-12-18T08:28:45;5.67;;;3.30;;
22097;SDS011;11215;51.938;8.464;2022-12-18T08:31:11;5.10;;;2.93;;
22097;SDS011;11215;51.938;8.464;2022-12-18T08:33:37;5.23;;;3.27;;
22097;SDS011;11215;51.938;8.464;2022-12-18T08:36:03;5.27;;;3.23;;
22097;SDS011;11215;51.938;8.464;2022-12-18T08:38:31;5.50;;;3.10;;
22097;SDS011;11215;51.938;8.464;2022-12-18T08:41:01;4.37;;;2.87;;
22097;SDS011;11215;51.938;8.464;2022-12-18T08:43:31;5.33;;;3.67;;
22097;SDS011;11215;51.938;8.464;2022-12-18T08:46:16;6.53;;;3.20;;
22097;SDS011;11215;51.938;8.464;2022-12-18T08:48:45;6.80;;;3.73;;
22097;SDS011;11215;51.938;8.464;2022-12-18T08:51:11;4.83;;;3.30;;
22097;SDS011;11215;51.938;8.464;2022-12-18T08:53:37;5.33;;;3.23;;
22097;SDS011;11215;51.938;8.464;2022-12-18T08:56:11;6.10;;;3.10;;
22097;SDS011;11215;51.938;8.464;2022-12-18T08:58:37;6.57;;;3.60;;
22097;SDS011;11215;51.938;8.464;2022-12-18T09:01:04;5.03;;;3.70;;
22097;SDS011;11215;51.938;8.464;2022-12-18T09:03:31;5.57;;;3.67;;
22097;SDS011;11215;51.938;8.464;2022-12-18T09:05:57;7.37;;;4.30;;
22097;SDS011;11215;51.938;8.464;2022-12-18T09:08:23;5.27;;;3.30;;
22097;SDS011;11215;51.938;8.464;2022-12-18T09:10:49;5.67;;;3.67;;
22097;SDS011;11215;51.938;8.464;2022-12-18T09:13:15;5.10;;;3.47;;
22097;SDS011;11215;51.938;8.464;2022-12-18T09:15:42;6.80;;;3.67;;
22097;SDS011;11215;51.938;8.464;2022-12-18T09:18:10;6.17;;;3.90;;
22097;SDS011;11215;51.938;8.464;2022-12-18T09:20:37;7.50;;;3.73;;
22097;SDS011;11215;51.938;8.464;2022-12-18T09:23:03;5.53;;;3.93;;
22097;SDS011;11215;51.938;8.464;2022-12-18T09:25:30;5.00;;;3.33;;
22097;SDS011;11215;51.938;8.464;2022-12-18T09:28:00;4.50;;;3.60;;
22097;SDS011;11215;51.938;8.464;2022-12-18T09:30:27;7.37;;;3.83;;
22097;SDS011;11215;51.938;8.464;2022-12-18T09:32:52;5.10;;;3.40;;
22097;SDS011;11215;51.938;8.464;2022-12-18T09:35:18;5.93;;;3.93;;
22097;SDS011;11215;51.938;8.464;2022-12-18T09:37:44;6.90;;;3.87;;
22097;SDS011;11215;51.938;8.464;2022-12-18T09:40:13;6.93;;;4.13;;
22097;SDS011;11215;51.938;8.464;2022-12-18T09:42:41;9.20;;;4.53;;
22097;SDS011;11215;51.938;8.464;2022-12-18T09:45:13;6.20;;;3.87;;
22097;SDS011;11215;51.938;8.464;2022-12-18T09:47:41;7.17;;;4.17;;
22097;SDS011;11215;51.938;8.464;2022-12-18T09:50:20;6.77;;;4.43;;
22097;SDS011;11215;51.938;8.464;2022-12-18T09:52:48;6.83;;;4.07;;
22097;SDS011;11215;51.938;8.464;2022-12-18T09:55:22;5.90;;;3.87;;
22097;SDS011;11215;51.938;8.464;2022-12-18T09:57:52;6.47;;;4.00;;
22097;SDS011;11215;51.938;8.464;2022-12-18T10:00:24;8.17;;;3.97;;
22097;SDS011;11215;51.938;8.464;2022-12-18T10:02:51;5.87;;;3.73;;
22097;SDS011;11215;51.938;8.464;2022-12-18T10:25:21;7.53;;;4.40;;
22097;SDS011;11215;51.938;8.464;2022-12-18T10:27:48;5.97;;;4.30;;
22097;SDS011;11215;51.938;8.464;2022-12-18T10:30:21;7.30;;;4.20;;
22097;SDS011;11215;51.938;8.464;2022-12-18T10:32:49;6.50;;;4.10;;
22097;SDS011;11215;51.938;8.464;2022-12-18T10:35:25;6.37;;;4.13;;
22097;SDS011;11215;51.938;8.464;2022-12-18T10:40:28;6.17;;;4.07;;
22097;SDS011;11215;51.938;8.464;2022-12-18T10:43:10;8.77;;;4.87;;
22097;SDS011;11215;51.938;8.464;2022-12-18T10:45:37;6.43;;;4.30;;
22097;SDS011;11215;51.938;8.464;2022-12-18T10:48:04;7.13;;;4.20;;
22097;SDS011;11215;51.938;8.464;2022-12-18T10:50:42;5.77;;;4.03;;
22097;SDS011;11215;51.938;8.464;2022-12-18T10:53:14;6.73;;;3.77;;
22097;SDS011;11215;51.938;8.464;2022-12-18T10:55:45;6.73;;;4.03;;
22097;SDS011;11215;51.938;8.464;2022-12-18T10:58:25;6.37;;;4.20;;
22097;SDS011;11215;51.938;8.464;2022-12-18T11:01:15;5.53;;;3.70;;
22097;SDS011;11215;51.938;8.464;2022-12-18T11:04:08;6.80;;;3.43;;
22097;SDS011;11215;51.938;8.464;2022-12-18T11:06:33;5.33;;;3.67;;
22097;SDS011;11215;51.938;8.464;2022-12-18T11:09:04;7.17;;;3.80;;
22097;SDS011;11215;51.938;8.464;2022-12-18T11:11:42;8.00;;;5.03;;
22097;SDS011;11215;51.938;8.464;2022-12-18T11:14:26;6.33;;;3.73;;
22097;SDS011;11215;51.938;8.464;2022-12-18T11:17:25;6.50;;;3.63;;
22097;SDS011;11215;51.938;8.464;2022-12-18T11:20:19;7.70;;;3.40;;
22097;SDS011;11215;51.938;8.464;2022-12-18T11:22:56;5.70;;;3.47;;
22097;SDS011;11215;51.938;8.464;2022-12-18T11:25:26;4.43;;;3.03;;
22097;SDS011;11215;51.938;8.464;2022-12-18T11:27:56;6.73;;;3.90;;
22097;SDS011;11215;51.938;8.464;2022-12-18T11:30:31;6.00;;;3.33;;
22097;SDS011;11215;51.938;8.464;2022-12-18T11:33:04;5.70;;;3.60;;
22097;SDS011;11215;51.938;8.464;2022-12-18T11:35:55;6.30;;;3.67;;
22097;SDS011;11215;51.938;8.464;2022-12-18T11:38:39;6.00;;;3.83;;
22097;SDS011;11215;51.938;8.464;2022-12-18T11:41:13;7.03;;;3.67;;
22097;SDS011;11215;51.938;8.464;2022-12-18T11:44:09;7.33;;;4.00;;
22097;SDS011;11215;51.938;8.464;2022-12-18T11:46:43;6.60;;;4.30;;
22097;SDS011;11215;51.938;8.464;2022-12-18T11:49:34;7.63;;;4.40;;
22097;SDS011;11215;51.938;8.464;2022-12-18T11:55:12;5.33;;;3.67;;
22097;SDS011;11215;51.938;8.464;2022-12-18T12:00:19;7.70;;;3.73;;
22097;SDS011;11215;51.938;8.464;2022-12-18T12:08:18;6.77;;;3.87;;
22097;SDS011;11215;51.938;8.464;2022-12-18T12:10:51;6.63;;;4.30;;
22097;SDS011;11215;51.938;8.464;2022-12-18T12:16:24;6.80;;;4.20;;
22097;SDS011;11215;51.938;8.464;2022-12-18T12:19:06;5.77;;;3.90;;
22097;SDS011;11215;51.938;8.464;2022-12-18T12:21:39;4.43;;;3.10;;
22097;SDS011;11215;51.938;8.464;2022-12-18T12:29:08;6.23;;;3.60;;
22097;SDS011;11215;51.938;8.464;2022-12-18T12:31:53;5.37;;;3.07;;
22097;SDS011;11215;51.938;8.464;2022-12-18T12:37:15;8.00;;;3.57;;
22097;SDS011;11215;51.938;8.464;2022-12-18T12:39:54;5.10;;;3.27;;
22097;SDS011;11215;51.938;8.464;2022-12-18T12:45:28;4.43;;;2.93;;
22097;SDS011;11215;51.938;8.464;2022-12-18T12:48:01;7.70;;;3.67;;
22097;SDS011;11215;51.938;8.464;2022-12-18T12:50:30;9.97;;;4.07;;
22097;SDS011;11215;51.938;8.464;2022-12-18T12:53:04;5.50;;;3.40;;
22097;SDS011;11215;51.938;8.464;2022-12-18T12:55:32;5.37;;;3.50;;
22097;SDS011;11215;51.938;8.464;2022-12-18T12:58:06;6.07;;;4.23;;
22097;SDS011;11215;51.938;8.464;2022-12-18T13:00:41;6.73;;;3.60;;
22097;SDS011;11215;51.938;8.464;2022-12-18T13:14:39;5.10;;;3.40;;
22097;SDS011;11215;51.938;8.464;2022-12-18T13:20:32;8.60;;;4.50;;
22097;SDS011;11215;51.938;8.464;2022-12-18T13:32:20;4.93;;;3.33;;
22097;SDS011;11215;51.938;8.464;2022-12-18T13:44:34;6.70;;;3.90;;
22097;SDS011;11215;51.938;8.464;2022-12-18T13:50:26;5.77;;;3.23;;
22097;SDS011;11215;51.938;8.464;2022-12-18T13:56:43;6.80;;;3.70;;
22097;SDS011;11215;51.938;8.464;2022-12-18T14:02:31;5.30;;;3.00;;
22097;SDS011;11215;51.938;8.464;2022-12-18T14:08:21;5.10;;;3.43;;
22097;SDS011;11215;51.938;8.464;2022-12-18T14:24:13;8.23;;;3.43;;
22097;SDS011;11215;51.938;8.464;2022-12-18T14:30:25;6.63;;;2.80;;
22097;SDS011;11215;51.938;8.464;2022-12-18T14:47:12;5.00;;;3.13;;
22097;SDS011;11215;51.938;8.464;2022-12-18T14:53:01;5.00;;;3.30;;
22097;SDS011;11215;51.938;8.464;2022-12-18T14:58:50;5.60;;;4.03;;
22097;SDS011;11215;51.938;8.464;2022-12-18T15:05:18;5.67;;;4.17;;
22097;SDS011;11215;51.938;8.464;2022-12-18T15:07:54;6.93;;;4.33;;
22097;SDS011;11215;51.938;8.464;2022-12-18T15:10:22;5.23;;;3.50;;
22097;SDS011;11215;51.938;8.464;2022-12-18T15:22:43;5.70;;;4.13;;
22097;SDS011;11215;51.938;8.464;2022-12-18T15:34:27;8.60;;;4.73;;
22097;SDS011;11215;51.938;8.464;2022-12-18T15:40:16;6.70;;;4.53;;
22097;SDS011;11215;51.938;8.464;2022-12-18T15:51:58;7.20;;;4.93;;
22097;SDS011;11215;51.938;8.464;2022-12-18T15:57:46;6.90;;;4.23;;
22097;SDS011;11215;51.938;8.464;2022-12-18T16:03:34;7.70;;;4.57;;
22097;SDS011;11215;51.938;8.464;2022-12-18T16:09:21;7.23;;;4.80;;
22097;SDS011;11215;51.938;8.464;2022-12-18T16:15:10;9.13;;;5.53;;
22097;SDS011;11215;51.938;8.464;2022-12-18T16:21:02;9.23;;;4.90;;
22097;SDS011;11215;51.938;8.464;2022-12-18T16:30:15;7.60;;;4.57;;
22097;SDS011;11215;51.938;8.464;2022-12-18T16:36:05;10.40;;;6.03;;
22097;SDS011;11215;51.938;8.464;2022-12-18T16:41:54;10.60;;;5.93;;
22097;SDS011;11215;51.938;8.464;2022-12-18T16:47:42;11.23;;;6.50;;
22097;SDS011;11215;51.938;8.464;2022-12-18T16:53:31;11.00;;;6.57;;
22097;SDS011;11215;51.938;8.464;2022-12-18T17:02:40;11.40;;;6.77;;
22097;SDS011;11215;51.938;8.464;2022-12-18T17:08:28;10.70;;;6.73;;
22097;SDS011;11215;51.938;8.464;2022-12-18T17:14:17;11.27;;;6.70;;
22097;SDS011;11215;51.938;8.464;2022-12-18T17:20:06;11.23;;;6.90;;
22097;SDS011;11215;51.938;8.464;2022-12-18T17:35:57;14.30;;;7.63;;
22097;SDS011;11215;51.938;8.464;2022-12-18T17:41:45;13.63;;;8.10;;
22097;SDS011;11215;51.938;8.464;2022-12-18T17:47:33;14.67;;;8.30;;
22097;SDS011;11215;51.938;8.464;2022-12-18T17:53:20;14.10;;;8.83;;
22097;SDS011;11215;51.938;8.464;2022-12-18T17:59:08;17.37;;;9.03;;
22097;SDS011;11215;51.938;8.464;2022-12-18T18:04:56;14.93;;;9.47;;
22097;SDS011;11215;51.938;8.464;2022-12-18T18:10:43;16.57;;;9.80;;
22097;SDS011;11215;51.938;8.464;2022-12-18T18:22:18;21.50;;;11.40;;
22097;SDS011;11215;51.938;8.464;2022-12-18T18:31:29;18.67;;;10.63;;
22097;SDS011;11215;51.938;8.464;2022-12-18T18:37:17;18.40;;;10.43;;
22097;SDS011;11215;51.938;8.464;2022-12-18T18:43:04;22.23;;;11.87;;
22097;SDS011;11215;51.938;8.464;2022-12-18T18:48:52;19.77;;;10.90;;
22097;SDS011;11215;51.938;8.464;2022-12-18T18:51:21;20.20;;;10.87;;
22097;SDS011;11215;51.938;8.464;2022-12-18T19:00:21;17.57;;;9.33;;
22097;SDS011;11215;51.938;8.464;2022-12-18T19:06:25;21.80;;;10.43;;
22097;SDS011;11215;51.938;8.464;2022-12-18T19:15:35;20.57;;;10.70;;
22097;SDS011;11215;51.938;8.464;2022-12-18T19:21:23;19.87;;;10.83;;
22097;SDS011;11215;51.938;8.464;2022-12-18T19:37:09;19.97;;;11.43;;
22097;SDS011;11215;51.938;8.464;2022-12-18T19:42:57;20.93;;;11.77;;
22097;SDS011;11215;51.938;8.464;2022-12-18T19:48:45;20.30;;;11.03;;
22097;SDS011;11215;51.938;8.464;2022-12-18T19:54:33;23.97;;;11.90;;
22097;SDS011;11215;51.938;8.464;2022-12-18T20:00:20;22.20;;;12.43;;
22097;SDS011;11215;51.938;8.464;2022-12-18T20:09:30;21.87;;;12.30;;
22097;SDS011;11215;51.938;8.464;2022-12-18T20:15:18;22.30;;;12.63;;
22097;SDS011;11215;51.938;8.464;2022-12-18T20:21:05;18.73;;;10.57;;
22097;SDS011;11215;51.938;8.464;2022-12-18T20:26:53;22.90;;;12.87;;
22097;SDS011;11215;51.938;8.464;2022-12-18T20:32:41;21.77;;;12.17;;
22097;SDS011;11215;51.938;8.464;2022-12-18T20:38:29;22.10;;;12.00;;
22097;SDS011;11215;51.938;8.464;2022-12-18T20:44:16;23.73;;;12.83;;
22097;SDS011;11215;51.938;8.464;2022-12-18T20:50:05;27.00;;;14.40;;
22097;SDS011;11215;51.938;8.464;2022-12-18T20:52:31;23.43;;;12.33;;
22097;SDS011;11215;51.938;8.464;2022-12-18T20:58:19;23.43;;;12.80;;
22097;SDS011;11215;51.938;8.464;2022-12-18T21:04:06;22.57;;;11.97;;
22097;SDS011;11215;51.938;8.464;2022-12-18T21:09:54;24.63;;;12.37;;
22097;SDS011;11215;51.938;8.464;2022-12-18T21:15:42;22.00;;;12.87;;
22097;SDS011;11215;51.938;8.464;2022-12-18T21:21:29;23.40;;;12.00;;
22097;SDS011;11215;51.938;8.464;2022-12-18T21:37:09;21.67;;;11.93;;
22097;SDS011;11215;51.938;8.464;2022-12-18T21:42:56;22.23;;;12.00;;
22097;SDS011;11215;51.938;8.464;2022-12-18T21:55:27;23.33;;;11.93;;
22097;SDS011;11215;51.938;8.464;2022-12-18T22:01:18;23.97;;;13.40;;
22097;SDS011;11215;51.938;8.464;2022-12-18T22:07:05;24.33;;;12.87;;